Beach, Georgia
Current Conditions -  °F | °C
As of 5:53 PM on Saturday 25 Oct 2014 (Local Time) from KAMG Reporting Station
Clear Clear  
Wind Chill: 76°   Ceiling: Unl
Heat Index: 76°   Visibility: 10mi
Dew Point: 46°   Wind: 0mph
Humidity: 35%   Direction: NA
Pressure: 29.96"   Gusts: NA
Location:  31.4253°N, 82.5972°W
Report Text: KAMG 252153Z AUTO 00000KT 10SM CLR 24/08 A2996 RMK AO2 SLP144 T02440078
Loading
Personal Weather Stations






























Interactive Weather Map
Tropical Storm Tracking
New forecast layout! Learn more

10-Day Weather Forecast

Advertisements
Track Severe Weather on mobile